createdAt,value
2022-11-27T00:01:37.496Z,7.23
2022-11-27T00:04:07.807Z,7.23
2022-11-27T00:06:38.123Z,7.27
2022-11-27T00:09:11.871Z,7.26
2022-11-27T00:11:40.431Z,7.24
2022-11-27T00:14:18.040Z,7.22
2022-11-27T00:16:45.636Z,7.19
2022-11-27T00:19:13.538Z,7.20
2022-11-27T00:21:41.306Z,7.14
2022-11-27T00:24:11.140Z,7.09
2022-11-27T00:26:44.378Z,7.10
2022-11-27T00:29:12.267Z,7.09
2022-11-27T00:31:40.014Z,7.14
2022-11-27T00:34:09.103Z,7.19
2022-11-27T00:36:37.802Z,7.26
2022-11-27T00:39:06.457Z,7.26
2022-11-27T00:41:34.316Z,7.27
2022-11-27T00:44:02.351Z,7.32
2022-11-27T00:46:33.348Z,7.37
2022-11-27T00:49:04.378Z,7.39
2022-11-27T00:51:32.223Z,7.40
2022-11-27T00:54:00.595Z,7.38
2022-11-27T00:56:32.123Z,7.36
2022-11-27T00:59:00.496Z,7.35
2022-11-27T01:01:42.524Z,7.33
2022-11-27T01:04:15.148Z,7.34
2022-11-27T01:06:43.531Z,7.33
2022-11-27T01:09:15.517Z,7.34
2022-11-27T01:11:43.446Z,7.35
2022-11-27T01:14:16.680Z,7.35
2022-11-27T01:16:44.786Z,7.35
2022-11-27T01:19:14.367Z,7.34
2022-11-27T01:21:42.430Z,7.38
2022-11-27T01:24:12.526Z,7.39
2022-11-27T01:26:41.129Z,7.39
2022-11-27T01:29:09.131Z,7.39
2022-11-27T01:31:36.973Z,7.37
2022-11-27T01:34:13.266Z,7.38
2022-11-27T01:36:41.156Z,7.38
2022-11-27T01:39:19.955Z,7.40
2022-11-27T01:41:48.995Z,7.41
2022-11-27T01:44:25.821Z,7.43
2022-11-27T01:47:10.436Z,7.46
2022-11-27T01:49:44.674Z,7.46
2022-11-27T01:52:24.039Z,7.46
2022-11-27T01:55:28.263Z,7.44
2022-11-27T01:58:07.505Z,7.38
2022-11-27T02:00:36.211Z,7.35
2022-11-27T02:03:04.102Z,7.33
2022-11-27T02:05:33.473Z,7.32
2022-11-27T02:08:07.764Z,7.31
2022-11-27T02:10:54.728Z,7.30
2022-11-27T02:13:36.949Z,7.29
2022-11-27T02:16:44.180Z,7.25
2022-11-27T02:20:03.492Z,7.23
2022-11-27T02:23:18.021Z,7.21
2022-11-27T02:26:15.658Z,7.19
2022-11-27T02:29:20.347Z,7.19
2022-11-27T02:32:26.030Z,7.18
2022-11-27T02:35:32.375Z,7.19
2022-11-27T02:38:15.451Z,7.20
2022-11-27T02:40:54.868Z,7.21
2022-11-27T02:43:40.766Z,7.20
2022-11-27T02:46:11.008Z,7.20
2022-11-27T02:48:48.002Z,7.19
2022-11-27T02:51:22.547Z,7.19
2022-11-27T02:53:59.341Z,7.19
2022-11-27T02:56:31.018Z,7.19
2022-11-27T02:59:05.236Z,7.21
2022-11-27T03:01:40.808Z,7.18
2022-11-27T03:04:15.491Z,7.18
2022-11-27T03:06:49.337Z,7.17
2022-11-27T03:09:27.906Z,7.18
2022-11-27T03:11:57.256Z,7.17
2022-11-27T03:14:25.828Z,7.15
2022-11-27T03:17:10.633Z,7.14
2022-11-27T03:19:45.868Z,7.16
2022-11-27T03:22:13.728Z,7.15
2022-11-27T03:24:41.653Z,7.15
2022-11-27T03:27:13.810Z,7.18
2022-11-27T03:29:59.028Z,7.18
2022-11-27T03:32:29.226Z,7.20
2022-11-27T03:34:57.514Z,7.24
2022-11-27T03:37:25.951Z,7.30
2022-11-27T03:39:54.181Z,7.35
2022-11-27T03:42:39.428Z,7.41
2022-11-27T03:45:38.654Z,7.45
2022-11-27T03:48:21.399Z,7.46
2022-11-27T03:51:16.526Z,7.48
2022-11-27T03:54:05.612Z,7.47
2022-11-27T03:57:03.793Z,7.46
2022-11-27T03:59:37.597Z,7.46
2022-11-27T04:02:05.242Z,7.45
2022-11-27T04:04:33.082Z,7.43
2022-11-27T04:07:00.634Z,7.43
2022-11-27T04:09:28.427Z,7.40
2022-11-27T04:11:55.917Z,7.40
2022-11-27T04:14:23.649Z,7.36
2022-11-27T04:16:51.212Z,7.37
2022-11-27T04:19:19.020Z,7.36
2022-11-27T04:21:46.528Z,7.38
2022-11-27T04:24:14.407Z,7.39
2022-11-27T04:26:41.845Z,7.37
2022-11-27T04:29:09.736Z,7.38
2022-11-27T04:31:37.303Z,7.36
2022-11-27T04:34:05.210Z,7.39
2022-11-27T04:36:38.858Z,7.39
2022-11-27T04:39:07.338Z,7.41
2022-11-27T04:41:34.955Z,7.40
2022-11-27T04:44:02.761Z,7.39
2022-11-27T04:46:30.563Z,7.38
2022-11-27T04:48:58.372Z,7.39
2022-11-27T04:51:25.942Z,7.38
2022-11-27T04:53:53.894Z,7.35
2022-11-27T04:56:21.493Z,7.32
2022-11-27T04:58:49.366Z,7.27
2022-11-27T05:01:17.020Z,7.23
2022-11-27T05:03:46.594Z,7.24
2022-11-27T05:06:14.313Z,7.25
2022-11-27T05:08:42.234Z,7.26
2022-11-27T05:11:14.289Z,7.29
2022-11-27T05:13:43.010Z,7.31
2022-11-27T05:16:10.914Z,7.28
2022-11-27T05:18:38.827Z,7.28
2022-11-27T05:21:08.559Z,7.27
2022-11-27T05:23:36.484Z,7.25
2022-11-27T05:26:04.075Z,7.23
2022-11-27T05:28:31.948Z,7.17
2022-11-27T05:30:59.872Z,7.15
2022-11-27T05:33:27.746Z,7.11
2022-11-27T05:35:55.389Z,7.10
2022-11-27T05:38:23.134Z,7.14
2022-11-27T05:40:50.642Z,7.12
2022-11-27T05:43:18.546Z,7.13
2022-11-27T05:45:46.013Z,7.15
2022-11-27T05:48:13.875Z,7.16
2022-11-27T05:50:41.409Z,7.16
2022-11-27T05:53:09.347Z,7.16
2022-11-27T05:55:36.808Z,7.16
2022-11-27T05:58:04.794Z,7.12
2022-11-27T06:00:32.482Z,7.10
2022-11-27T06:03:00.536Z,7.02
2022-11-27T06:05:28.162Z,6.93
2022-11-27T06:07:56.011Z,6.89
2022-11-27T06:10:23.653Z,6.91
2022-11-27T06:12:51.471Z,6.92
2022-11-27T06:15:18.912Z,6.96
2022-11-27T06:17:49.279Z,6.99
2022-11-27T06:20:17.386Z,7.02
2022-11-27T06:22:45.285Z,7.05
2022-11-27T06:25:12.795Z,7.05
2022-11-27T06:27:40.713Z,7.04
2022-11-27T06:30:09.456Z,7.04
2022-11-27T06:32:37.308Z,7.04
2022-11-27T06:35:05.409Z,7.05
2022-11-27T06:37:33.390Z,7.06
2022-11-27T06:40:01.001Z,7.09
2022-11-27T06:42:32.228Z,7.04
2022-11-27T06:44:59.750Z,7.05
2022-11-27T06:47:27.756Z,7.09
2022-11-27T06:49:55.328Z,7.13
2022-11-27T06:52:23.196Z,7.14
2022-11-27T06:54:50.739Z,7.18
2022-11-27T06:57:18.664Z,7.21
2022-11-27T06:59:46.418Z,7.21
2022-11-27T07:02:15.380Z,7.21
2022-11-27T07:04:43.025Z,7.22
2022-11-27T07:07:11.213Z,7.22
2022-11-27T07:09:42.057Z,7.23
2022-11-27T07:12:11.485Z,7.23
2022-11-27T07:14:39.229Z,7.20
2022-11-27T07:17:07.315Z,7.18
2022-11-27T07:19:34.849Z,7.15
2022-11-27T07:22:03.003Z,7.13
2022-11-27T07:24:30.503Z,7.14
2022-11-27T07:26:58.441Z,7.15
2022-11-27T07:29:26.105Z,7.17
2022-11-27T07:31:53.913Z,7.18
2022-11-27T07:34:22.050Z,7.19
2022-11-27T07:36:49.897Z,7.18
2022-11-27T07:39:33.886Z,7.18
2022-11-27T07:42:36.432Z,7.20
2022-11-27T07:44:55.664Z,7.21
2022-11-27T07:47:23.498Z,7.24
2022-11-27T07:49:51.105Z,7.24
2022-11-27T07:52:19.082Z,7.24
2022-11-27T07:54:46.561Z,7.25
2022-11-27T07:57:14.329Z,7.27
2022-11-27T07:59:46.987Z,7.33
2022-11-27T08:02:15.922Z,7.36
2022-11-27T08:04:43.790Z,7.40
2022-11-27T08:07:12.627Z,7.44
2022-11-27T08:09:40.357Z,7.49
2022-11-27T08:12:08.225Z,7.56
2022-11-27T08:14:36.027Z,7.59
2022-11-27T08:17:03.881Z,7.65
2022-11-27T08:19:31.549Z,7.67
2022-11-27T08:21:59.448Z,7.67
2022-11-27T08:24:26.940Z,7.75
2022-11-27T08:26:55.082Z,7.80
2022-11-27T08:29:22.864Z,7.82
2022-11-27T08:31:50.681Z,7.85
2022-11-27T08:34:18.248Z,7.84
2022-11-27T08:36:46.142Z,7.86
2022-11-27T08:39:14.383Z,7.88
2022-11-27T08:41:42.323Z,7.92
2022-11-27T08:44:09.913Z,7.92
2022-11-27T08:46:37.838Z,7.93
2022-11-27T08:49:05.400Z,7.98
2022-11-27T08:51:33.233Z,8.06
2022-11-27T08:54:00.664Z,8.11
2022-11-27T08:56:28.865Z,8.24
2022-11-27T08:58:57.272Z,8.30
2022-11-27T09:01:29.694Z,8.35
2022-11-27T09:03:57.832Z,8.37
2022-11-27T09:06:29.955Z,8.36
2022-11-27T09:08:59.939Z,8.34
2022-11-27T09:11:31.201Z,8.28
2022-11-27T09:14:03.882Z,8.24
2022-11-27T09:16:50.156Z,8.21
2022-11-27T09:19:18.207Z,8.20
2022-11-27T09:21:46.936Z,8.18
2022-11-27T09:24:14.396Z,8.11
2022-11-27T09:26:42.318Z,8.09
2022-11-27T09:29:09.791Z,8.04
2022-11-27T09:31:37.619Z,8.02
2022-11-27T09:34:05.875Z,8.01
2022-11-27T09:36:33.840Z,8.00
2022-11-27T09:39:04.239Z,8.02
2022-11-27T09:41:55.405Z,8.04
2022-11-27T09:44:45.360Z,8.05
2022-11-27T09:47:42.010Z,8.05
2022-11-27T09:50:24.375Z,8.05
2022-11-27T09:53:06.463Z,8.07
2022-11-27T09:55:47.285Z,8.05
2022-11-27T09:58:21.578Z,8.05
2022-11-27T10:00:49.145Z,8.02
2022-11-27T10:03:25.553Z,7.99
2022-11-27T10:06:22.083Z,7.97
2022-11-27T10:09:19.333Z,7.94
2022-11-27T10:12:30.692Z,7.92
2022-11-27T10:15:13.969Z,7.91
2022-11-27T10:18:01.579Z,7.90
2022-11-27T10:20:32.896Z,7.90
2022-11-27T10:23:14.858Z,7.90
2022-11-27T10:25:52.489Z,7.86
2022-11-27T10:28:48.941Z,7.81
2022-11-27T10:31:50.226Z,7.80
2022-11-27T10:34:58.557Z,7.81
2022-11-27T10:38:10.150Z,7.81
2022-11-27T10:40:49.148Z,7.82
2022-11-27T10:43:23.296Z,7.82
2022-11-27T10:46:20.467Z,7.85
2022-11-27T10:48:48.746Z,7.89
2022-11-27T10:51:29.354Z,7.92
2022-11-27T10:54:01.042Z,7.95
2022-11-27T10:57:33.413Z,7.98
2022-11-27T11:00:13.544Z,7.91
2022-11-27T11:02:41.919Z,7.91
2022-11-27T11:08:20.868Z,7.86
2022-11-27T11:10:57.901Z,7.88
2022-11-27T11:13:41.367Z,7.88
2022-11-27T11:16:14.790Z,7.84
2022-11-27T11:18:49.671Z,7.77
2022-11-27T11:21:29.693Z,7.73
2022-11-27T11:24:05.092Z,7.73
2022-11-27T11:26:51.411Z,7.75
2022-11-27T11:29:46.751Z,7.69
2022-11-27T11:32:21.580Z,7.58
2022-11-27T11:35:08.539Z,7.49
2022-11-27T11:37:45.486Z,7.54
2022-11-27T11:40:23.703Z,7.43
2022-11-27T11:43:01.257Z,7.44
2022-11-27T11:45:34.568Z,7.46
2022-11-27T11:48:28.179Z,7.48
2022-11-27T11:51:26.421Z,7.52
2022-11-27T11:54:40.207Z,7.58
2022-11-27T11:57:45.786Z,7.60
2022-11-27T12:00:18.375Z,7.62
2022-11-27T12:03:05.719Z,7.64
2022-11-27T12:06:07.194Z,7.62
2022-11-27T12:08:56.383Z,7.62
2022-11-27T12:12:18.677Z,7.58
2022-11-27T12:15:16.290Z,7.57
2022-11-27T12:18:42.973Z,7.55
2022-11-27T12:21:30.790Z,7.53
2022-11-27T12:24:29.194Z,7.49
2022-11-27T12:27:15.965Z,7.40
2022-11-27T12:30:23.880Z,7.32
2022-11-27T12:33:13.090Z,7.21
2022-11-27T12:36:07.129Z,7.15
2022-11-27T12:39:03.576Z,7.02
2022-11-27T12:42:12.438Z,6.93
2022-11-27T12:48:39.371Z,6.98
2022-11-27T12:57:33.960Z,7.10
2022-11-27T13:00:08.072Z,7.10
2022-11-27T13:03:01.133Z,7.16
2022-11-27T13:05:41.309Z,7.19
2022-11-27T13:11:36.315Z,7.18
2022-11-27T13:14:26.939Z,7.22
2022-11-27T13:17:05.252Z,7.22
2022-11-27T13:19:47.180Z,7.21
2022-11-27T13:22:27.531Z,7.19
2022-11-27T13:24:56.749Z,7.21
2022-11-27T13:27:29.529Z,7.23
2022-11-27T13:30:09.672Z,7.20
2022-11-27T13:32:48.601Z,7.23
2022-11-27T13:35:36.571Z,7.25
2022-11-27T13:38:26.476Z,7.24
2022-11-27T13:40:57.531Z,7.25
2022-11-27T13:43:47.123Z,7.29
2022-11-27T13:46:26.497Z,7.28
2022-11-27T13:49:02.884Z,7.25
2022-11-27T13:51:35.300Z,7.26
2022-11-27T13:54:29.413Z,7.27
2022-11-27T13:56:56.936Z,7.29
2022-11-27T13:59:26.095Z,7.27
2022-11-27T14:01:58.672Z,7.23
2022-11-27T14:04:29.134Z,7.20
2022-11-27T14:07:10.332Z,7.22
2022-11-27T14:09:46.577Z,7.26
2022-11-27T14:12:29.539Z,7.30
2022-11-27T14:15:16.667Z,7.33
2022-11-27T14:17:47.538Z,7.34
2022-11-27T14:20:18.176Z,7.31
2022-11-27T14:23:13.207Z,7.23
2022-11-27T14:25:41.822Z,7.15
2022-11-27T14:28:21.682Z,7.17
2022-11-27T14:30:56.967Z,7.16
2022-11-27T14:33:33.217Z,7.19
2022-11-27T14:36:08.054Z,7.16
2022-11-27T14:38:37.230Z,7.18
2022-11-27T14:41:16.477Z,7.18
2022-11-27T14:43:44.144Z,7.17
2022-11-27T14:46:21.593Z,7.21
2022-11-27T14:48:57.454Z,7.22
2022-11-27T14:51:29.095Z,7.26
2022-11-27T14:54:25.603Z,7.25
2022-11-27T14:56:54.174Z,7.25
2022-11-27T14:59:24.022Z,7.24
2022-11-27T15:02:11.452Z,7.18
2022-11-27T15:04:42.262Z,7.17
2022-11-27T15:07:25.175Z,7.19
2022-11-27T15:09:56.927Z,7.19
2022-11-27T15:12:30.692Z,7.22
2022-11-27T15:15:29.028Z,7.18
2022-11-27T15:18:03.645Z,7.10
2022-11-27T15:20:42.596Z,7.02
2022-11-27T15:23:34.098Z,6.98
2022-11-27T15:26:17.816Z,6.93
2022-11-27T15:28:53.114Z,6.94
2022-11-27T15:31:38.249Z,6.93
2022-11-27T15:34:30.127Z,6.98
2022-11-27T15:37:03.813Z,6.97
2022-11-27T15:39:53.408Z,6.98
2022-11-27T15:42:22.430Z,6.96
2022-11-27T15:44:55.865Z,6.99
2022-11-27T15:47:27.523Z,6.97
2022-11-27T15:49:56.143Z,6.95
2022-11-27T15:52:23.895Z,6.91
2022-11-27T15:54:52.532Z,6.92
2022-11-27T15:57:20.369Z,6.91
2022-11-27T15:59:50.792Z,6.92
2022-11-27T16:02:20.828Z,6.93
2022-11-27T16:04:50.470Z,6.92
2022-11-27T16:07:18.080Z,6.93
2022-11-27T16:09:49.159Z,6.96
2022-11-27T16:12:16.837Z,6.99
2022-11-27T16:14:44.679Z,7.00
2022-11-27T16:17:12.338Z,7.05
2022-11-27T16:19:40.827Z,7.07
2022-11-27T16:22:08.618Z,7.07
2022-11-27T16:24:38.049Z,7.09
2022-11-27T16:27:07.260Z,7.12
2022-11-27T16:29:35.049Z,7.10
2022-11-27T16:32:03.441Z,7.07
2022-11-27T16:34:31.343Z,7.06
2022-11-27T16:36:59.471Z,7.07
2022-11-27T16:39:28.620Z,7.09
2022-11-27T16:41:57.303Z,7.07
2022-11-27T16:44:25.472Z,7.09
2022-11-27T16:46:53.855Z,7.08
2022-11-27T16:49:21.992Z,7.06
2022-11-27T16:51:50.787Z,7.04
2022-11-27T16:54:19.668Z,7.05
2022-11-27T16:56:47.481Z,7.05
2022-11-27T16:59:15.707Z,7.05
2022-11-27T17:01:44.785Z,7.07
2022-11-27T17:04:20.632Z,7.08
2022-11-27T17:06:50.369Z,7.10
2022-11-27T17:09:20.491Z,7.09
2022-11-27T17:11:49.091Z,7.09
2022-11-27T17:14:19.942Z,7.08
2022-11-27T17:16:48.038Z,7.05
2022-11-27T17:19:17.765Z,7.05
2022-11-27T17:21:46.283Z,7.03
2022-11-27T17:24:17.061Z,7.03
2022-11-27T17:26:48.078Z,7.04
2022-11-27T17:29:20.982Z,7.02
2022-11-27T17:31:50.710Z,7.01
2022-11-27T17:34:19.013Z,7.03
2022-11-27T17:36:53.383Z,7.00
2022-11-27T17:39:21.826Z,7.02
2022-11-27T17:41:49.494Z,7.00
2022-11-27T17:44:17.423Z,7.02
2022-11-27T17:46:49.938Z,7.00
2022-11-27T17:49:19.459Z,7.01
2022-11-27T17:51:48.204Z,6.99
2022-11-27T17:54:16.243Z,6.97
2022-11-27T17:56:51.105Z,6.99
2022-11-27T17:59:20.338Z,6.98
2022-11-27T18:01:51.441Z,7.00
2022-11-27T18:04:20.918Z,7.00
2022-11-27T18:06:48.989Z,7.00
2022-11-27T18:09:16.958Z,7.01
2022-11-27T18:11:44.728Z,7.01
2022-11-27T18:14:13.730Z,6.99
2022-11-27T18:16:42.414Z,6.98
2022-11-27T18:19:12.072Z,6.91
2022-11-27T18:21:40.587Z,6.90
2022-11-27T18:24:22.983Z,6.89
2022-11-27T18:27:10.560Z,6.90
2022-11-27T18:29:42.495Z,6.87
2022-11-27T18:32:12.052Z,6.88
2022-11-27T18:34:40.602Z,6.86
2022-11-27T18:37:09.251Z,6.82
2022-11-27T18:39:38.792Z,6.80
2022-11-27T18:42:07.768Z,6.81
2022-11-27T18:47:35.049Z,6.72
2022-11-27T18:50:06.887Z,6.69
2022-11-27T18:52:37.063Z,6.71
2022-11-27T18:55:06.208Z,6.73
2022-11-27T18:57:33.751Z,6.72
2022-11-27T19:00:01.705Z,6.72
2022-11-27T19:02:29.980Z,6.72
2022-11-27T19:04:58.359Z,6.71
2022-11-27T19:07:28.168Z,6.71
2022-11-27T19:09:58.909Z,6.69
2022-11-27T19:12:26.757Z,6.71
2022-11-27T19:14:55.824Z,6.68
2022-11-27T19:17:30.844Z,6.66
2022-11-27T19:20:00.630Z,6.66
2022-11-27T19:22:28.982Z,6.64
2022-11-27T19:24:57.939Z,6.65
2022-11-27T19:27:25.978Z,6.61
2022-11-27T19:29:54.271Z,6.62
2022-11-27T19:32:22.402Z,6.63
2022-11-27T19:34:51.517Z,6.67
2022-11-27T19:37:33.467Z,6.68
2022-11-27T19:40:04.116Z,6.70
2022-11-27T19:42:32.679Z,6.69
2022-11-27T19:45:00.607Z,6.71
2022-11-27T19:47:28.187Z,6.74
2022-11-27T19:49:56.077Z,6.73
2022-11-27T19:52:23.794Z,6.78
2022-11-27T19:54:51.668Z,6.78
2022-11-27T19:57:19.427Z,6.77
2022-11-27T19:59:47.339Z,6.79
2022-11-27T20:02:18.025Z,6.81
2022-11-27T20:04:46.785Z,6.82
2022-11-27T20:07:15.180Z,6.82
2022-11-27T20:09:43.525Z,6.80
2022-11-27T20:12:11.449Z,6.78
2022-11-27T20:14:39.699Z,6.74
2022-11-27T20:17:08.012Z,6.73
2022-11-27T20:19:36.096Z,6.74
2022-11-27T20:22:03.823Z,6.73
2022-11-27T20:24:31.793Z,6.73
2022-11-27T20:26:59.988Z,6.76
2022-11-27T20:29:28.346Z,6.75
2022-11-27T20:31:55.884Z,6.73
2022-11-27T20:34:24.069Z,6.71
2022-11-27T20:36:51.725Z,6.74
2022-11-27T20:39:21.869Z,6.77
2022-11-27T20:41:52.165Z,6.81
2022-11-27T20:44:22.603Z,6.82
2022-11-27T20:46:51.131Z,6.80
2022-11-27T20:49:20.721Z,6.79
2022-11-27T20:51:50.662Z,6.73
2022-11-27T20:54:23.128Z,6.71
2022-11-27T20:56:51.694Z,6.68
2022-11-27T20:59:20.106Z,6.67
2022-11-27T21:01:51.904Z,6.67
2022-11-27T21:04:26.367Z,6.67
2022-11-27T21:06:54.511Z,6.63
2022-11-27T21:09:22.725Z,6.63
2022-11-27T21:11:50.859Z,6.63
2022-11-27T21:14:19.485Z,6.62
2022-11-27T21:16:49.954Z,6.57
2022-11-27T21:19:26.487Z,6.52
2022-11-27T21:21:57.210Z,6.52
2022-11-27T21:24:28.487Z,6.49
2022-11-27T21:26:56.767Z,6.48
2022-11-27T21:29:27.812Z,6.49
2022-11-27T21:31:57.214Z,6.51
2022-11-27T21:34:29.083Z,6.48
2022-11-27T21:36:57.535Z,6.46
2022-11-27T21:39:36.685Z,6.46
2022-11-27T21:42:14.192Z,6.48
2022-11-27T21:44:51.777Z,6.51
2022-11-27T21:47:24.850Z,6.51
2022-11-27T21:49:52.860Z,6.52
2022-11-27T21:52:20.600Z,6.52
2022-11-27T21:54:50.892Z,6.53
2022-11-27T21:57:20.721Z,6.52
2022-11-27T21:59:48.712Z,6.52
2022-11-27T22:02:16.529Z,6.50
2022-11-27T22:04:44.794Z,6.51
2022-11-27T22:07:12.621Z,6.51
2022-11-27T22:09:40.973Z,6.53
2022-11-27T22:12:08.860Z,6.51
2022-11-27T22:14:36.807Z,6.49
2022-11-27T22:17:05.130Z,6.49
2022-11-27T22:19:36.546Z,6.51
2022-11-27T22:22:08.898Z,6.53
2022-11-27T22:24:58.950Z,6.56
2022-11-27T22:27:40.605Z,6.58
2022-11-27T22:30:09.350Z,6.61
2022-11-27T22:32:37.053Z,6.60
2022-11-27T22:35:05.920Z,6.60
2022-11-27T22:37:35.541Z,6.59
2022-11-27T22:40:05.748Z,6.58
2022-11-27T22:42:34.033Z,6.57
2022-11-27T22:45:02.497Z,6.51
2022-11-27T22:47:29.981Z,6.45
2022-11-27T22:49:59.085Z,6.42
2022-11-27T22:52:28.005Z,6.40
2022-11-27T22:54:56.012Z,6.44
2022-11-27T22:57:23.828Z,6.43
2022-11-27T22:59:51.771Z,6.42
2022-11-27T23:02:19.638Z,6.40
2022-11-27T23:04:47.605Z,6.38
2022-11-27T23:07:15.278Z,6.39
2022-11-27T23:09:43.238Z,6.38
2022-11-27T23:12:10.783Z,6.39
2022-11-27T23:14:39.944Z,6.38
2022-11-27T23:17:07.850Z,6.42
2022-11-27T23:19:35.825Z,6.42
2022-11-27T23:22:03.371Z,6.41
2022-11-27T23:24:31.220Z,6.43
2022-11-27T23:26:58.821Z,6.41
2022-11-27T23:29:26.927Z,6.40
2022-11-27T23:31:54.580Z,6.38
2022-11-27T23:34:22.628Z,6.39
2022-11-27T23:36:50.285Z,6.35
2022-11-27T23:39:18.177Z,6.38
2022-11-27T23:41:46.824Z,6.40
2022-11-27T23:44:15.070Z,6.40
2022-11-27T23:46:42.777Z,6.38
2022-11-27T23:49:11.002Z,6.39
2022-11-27T23:51:38.634Z,6.38
2022-11-27T23:54:10.457Z,6.39
2022-11-27T23:56:39.935Z,6.35
2022-11-27T23:59:08.024Z,6.35
